Time;durP1;ratioP1;P1;durP2;ratioP2;P2;SDS_P1;SDS_P2;PMS_P1;PMS_P2;Temp;Humidity;BMP_temperature;BMP_pressure;BME280_temperature;BME280_humidity;BME280_pressure;Samples;Min_cycle;Max_cycle;Signal;HPM_P1;HPM_P2
2021/04/21 03:46:17;;;;;;;;;24.00;22.75;;;;;;;;3478887;39;919303;-70
2021/04/21 03:48:44;;;;;;;;;33.67;26.33;;;;;;;;3546045;39;114001;-70
2021/04/21 03:51:13;;;;;;;;;23.33;23.33;;;;;;;;3531502;39;112123;-70
2021/04/21 03:53:40;;;;;;;;;28.33;22.67;;;;;;;;3535670;39;113201;-68
2021/04/21 03:56:07;;;;;;;;;22.00;20.00;;;;;;;;3535100;39;114160;-69
2021/04/21 03:58:34;;;;;;;;;22.00;19.33;;;;;;;;3534607;39;111848;-69
2021/04/21 04:01:03;;;;;;;;;23.67;21.00;;;;;;;;3535326;39;114166;-70
2021/04/21 04:03:31;;;;;;;;;21.33;19.33;;;;;;;;3535735;39;113957;-69
2021/04/21 04:06:00;;;;;;;;;23.67;20.33;;;;;;;;3538194;39;112266;-70
2021/04/21 04:08:27;;;;;;;;;24.67;22.33;;;;;;;;3536384;39;113891;-69
2021/04/21 04:10:55;;;;;;;;;23.00;23.00;;;;;;;;3535377;39;112468;-70
2021/04/21 04:13:25;;;;;;;;;20.67;20.67;;;;;;;;3529985;39;112627;-69
2021/04/21 04:15:53;;;;;;;;;20.33;18.33;;;;;;;;3529815;39;114567;-69
2021/04/21 04:18:22;;;;;;;;;20.00;18.67;;;;;;;;3529722;39;111888;-69
2021/04/21 04:20:50;;;;;;;;;24.33;20.00;;;;;;;;3532128;39;114052;-69
2021/04/21 04:23:18;;;;;;;;;26.33;21.00;;;;;;;;3534295;39;113981;-70
2021/04/21 04:25:46;;;;;;;;;25.67;22.33;;;;;;;;3531370;39;112008;-69
2021/04/21 04:28:12;;;;;;;;;21.00;19.33;;;;;;;;3537722;39;113293;-70
2021/04/21 04:30:38;;;;;;;;;24.33;19.00;;;;;;;;3533913;39;112273;-70
2021/04/21 04:33:05;;;;;;;;;25.33;20.00;;;;;;;;3536421;39;113259;-70
2021/04/21 04:35:32;;;;;;;;;23.33;23.00;;;;;;;;3536160;39;114167;-69
2021/04/21 04:38:00;;;;;;;;;23.67;20.00;;;;;;;;3532224;39;112910;-70
2021/04/21 04:40:26;;;;;;;;;20.33;20.33;;;;;;;;3536410;39;113432;-69
2021/04/21 04:42:53;;;;;;;;;19.00;19.00;;;;;;;;3534862;39;113778;-70
2021/04/21 04:45:20;;;;;;;;;25.33;22.67;;;;;;;;3532792;39;111954;-69
2021/04/21 04:47:46;;;;;;;;;23.67;19.33;;;;;;;;3536726;39;113695;-69
2021/04/21 04:50:13;;;;;;;;;25.00;19.00;;;;;;;;3535450;39;113862;-70
2021/04/21 04:52:41;;;;;;;;;23.00;19.00;;;;;;;;3536149;39;113156;-69
2021/04/21 04:55:09;;;;;;;;;25.67;19.33;;;;;;;;3535156;39;114326;-69
2021/04/21 04:57:37;;;;;;;;;19.33;19.00;;;;;;;;3529366;39;111862;-70
2021/04/21 05:00:04;;;;;;;;;25.00;22.00;;;;;;;;3529078;39;113985;-68
2021/04/21 05:02:32;;;;;;;;;21.00;19.67;;;;;;;;3528586;39;114100;-70
2021/04/21 05:05:00;;;;;;;;;20.67;19.67;;;;;;;;3526939;39;112135;-69
2021/04/21 05:07:29;;;;;;;;;34.67;25.67;;;;;;;;3527091;39;113301;-69
2021/04/21 05:10:01;;;;;;;;;23.00;20.67;;;;;;;;3525061;39;114347;-68
2021/04/21 05:12:32;;;;;;;;;26.33;25.00;;;;;;;;3529868;39;112155;-70
2021/04/21 05:14:59;;;;;;;;;36.33;33.00;;;;;;;;3524752;39;114049;-70
2021/04/21 05:17:46;;;;;;;;;32.00;22.33;;;;;;;;3526858;39;112297;-72
2021/04/21 05:20:26;;;;;;;;;26.00;22.00;;;;;;;;3529223;39;113217;-72
2021/04/21 05:23:10;;;;;;;;;23.00;22.00;;;;;;;;3526144;39;114005;-70
2021/04/21 05:25:54;;;;;;;;;18.00;18.00;;;;;;;;3528991;39;111791;-69
2021/04/21 05:28:40;;;;;;;;;19.33;19.33;;;;;;;;3526460;39;113582;-73
2021/04/21 05:31:26;;;;;;;;;27.67;23.33;;;;;;;;3525842;39;114058;-72
2021/04/21 05:34:08;;;;;;;;;26.00;20.00;;;;;;;;3526675;39;112421;-71
2021/04/21 05:37:07;;;;;;;;;29.67;29.67;;;;;;;;3531361;39;113365;-69
2021/04/21 05:39:54;;;;;;;;;29.67;24.00;;;;;;;;3528121;39;112000;-73
2021/04/21 05:42:47;;;;;;;;;30.00;25.33;;;;;;;;3526342;39;113384;-71
2021/04/21 05:45:42;;;;;;;;;30.67;28.00;;;;;;;;3528936;39;113940;-68
2021/04/21 05:48:23;;;;;;;;;26.67;24.00;;;;;;;;3528558;39;111896;-67
2021/04/21 05:51:10;;;;;;;;;23.00;22.67;;;;;;;;3524731;39;113325;-70
2021/04/21 05:53:52;;;;;;;;;27.00;26.67;;;;;;;;3522724;39;112856;-80
2021/04/21 05:56:46;;;;;;;;;19.33;17.00;;;;;;;;3524813;39;112208;-74
2021/04/21 05:59:30;;;;;;;;;28.33;25.67;;;;;;;;3529355;39;113290;-70
2021/04/21 06:01:57;;;;;;;;;27.33;24.67;;;;;;;;3528788;39;111917;-69
2021/04/21 06:04:24;;;;;;;;;31.00;25.33;;;;;;;;3529731;39;113397;-72
2021/04/21 06:07:04;;;;;;;;;28.67;27.00;;;;;;;;3527798;39;113954;-69
2021/04/21 06:09:30;;;;;;;;;29.67;24.00;;;;;;;;3526954;39;111867;-72
2021/04/21 06:12:04;;;;;;;;;26.67;24.67;;;;;;;;3529519;39;113247;-72
2021/04/21 06:14:30;;;;;;;;;25.67;24.00;;;;;;;;3527899;39;114359;-68
2021/04/21 06:16:57;;;;;;;;;28.00;22.33;;;;;;;;3522572;39;113364;-68
2021/04/21 06:19:26;;;;;;;;;23.00;20.00;;;;;;;;3526705;39;113537;-69
2021/04/21 06:21:52;;;;;;;;;33.00;28.00;;;;;;;;3530819;39;113779;-69
2021/04/21 06:24:19;;;;;;;;;25.67;23.67;;;;;;;;3524764;39;113676;-70
2021/04/21 06:26:45;;;;;;;;;28.33;26.00;;;;;;;;3528673;39;113985;-69
2021/04/21 06:29:12;;;;;;;;;27.33;25.00;;;;;;;;3527242;39;112337;-67
2021/04/21 06:31:40;;;;;;;;;30.33;26.33;;;;;;;;3528135;39;113287;-68
2021/04/21 06:34:06;;;;;;;;;35.33;30.00;;;;;;;;3527716;39;114081;-69
2021/04/21 06:36:41;;;;;;;;;41.33;35.67;;;;;;;;3526156;39;112097;-68
2021/04/21 06:39:08;;;;;;;;;32.00;27.33;;;;;;;;3526607;39;114091;-67
2021/04/21 06:41:34;;;;;;;;;25.33;23.33;;;;;;;;3527670;39;113903;-68
2021/04/21 06:44:01;;;;;;;;;38.00;31.33;;;;;;;;3528064;39;112605;-69
2021/04/21 06:46:27;;;;;;;;;31.00;28.67;;;;;;;;3526782;39;114050;-72
2021/04/21 06:48:54;;;;;;;;;28.67;26.00;;;;;;;;3527430;39;112066;-71
2021/04/21 06:51:20;;;;;;;;;29.33;27.00;;;;;;;;3524812;39;112418;-71
2021/04/21 06:53:48;;;;;;;;;33.00;30.00;;;;;;;;3525312;39;112996;-73
2021/04/21 06:56:14;;;;;;;;;29.33;27.33;;;;;;;;3528457;39;112002;-72
2021/04/21 06:58:41;;;;;;;;;30.00;28.33;;;;;;;;3527975;39;113890;-76
2021/04/21 07:01:10;;;;;;;;;28.00;26.67;;;;;;;;3527385;39;114040;-73
2021/04/21 07:03:36;;;;;;;;;27.33;21.00;;;;;;;;3528036;39;112350;-73
2021/04/21 07:06:02;;;;;;;;;26.33;24.00;;;;;;;;3530123;39;112743;-70
2021/04/21 07:08:29;;;;;;;;;31.67;28.67;;;;;;;;3524710;39;112275;-68
2021/04/21 07:10:57;;;;;;;;;23.00;21.33;;;;;;;;3525351;39;113360;-68
2021/04/21 07:13:23;;;;;;;;;28.00;25.00;;;;;;;;3522349;39;113132;-71
2021/04/21 07:15:50;;;;;;;;;26.00;25.33;;;;;;;;3529191;39;111851;-73
2021/04/21 07:18:18;;;;;;;;;30.00;25.33;;;;;;;;3526588;39;113344;-73
2021/04/21 07:20:44;;;;;;;;;32.33;29.00;;;;;;;;3524941;39;113927;-72
2021/04/21 07:23:11;;;;;;;;;30.67;28.67;;;;;;;;3527057;39;111821;-72
2021/04/21 07:25:38;;;;;;;;;37.67;33.67;;;;;;;;3527957;39;113790;-71
2021/04/21 07:28:06;;;;;;;;;27.33;26.67;;;;;;;;3529579;39;114640;-71
2021/04/21 07:30:34;;;;;;;;;29.67;29.00;;;;;;;;3527535;39;113531;-71
2021/04/21 07:33:00;;;;;;;;;31.33;30.00;;;;;;;;3527328;39;113949;-72
2021/04/21 07:35:27;;;;;;;;;32.67;30.33;;;;;;;;3527218;39;113676;-71
2021/04/21 07:37:55;;;;;;;;;27.00;23.00;;;;;;;;3514714;39;114109;-71
2021/04/21 07:40:26;;;;;;;;;30.67;29.33;;;;;;;;3534221;39;113082;-72
2021/04/21 07:42:59;;;;;;;;;26.33;24.33;;;;;;;;3538437;39;112416;-71
2021/04/21 07:45:38;;;;;;;;;26.33;23.33;;;;;;;;3537194;39;113983;-72
2021/04/21 07:48:05;;;;;;;;;25.67;22.00;;;;;;;;3511624;39;114269;-72
2021/04/21 07:50:34;;;;;;;;;26.67;25.00;;;;;;;;3543349;39;111976;-69
2021/04/21 07:53:01;;;;;;;;;26.33;26.00;;;;;;;;3532870;39;114047;-70
2021/04/21 07:55:27;;;;;;;;;34.00;27.00;;;;;;;;3533285;39;112297;-70
2021/04/21 07:57:57;;;;;;;;;25.00;22.50;;;;;;;;3531037;39;112368;-71
2021/04/21 08:00:25;;;;;;;;;23.25;21.75;;;;;;;;3534841;39;112805;-79
2021/04/21 08:02:51;;;;;;;;;31.00;23.00;;;;;;;;3566364;22;112121;-74
2021/04/21 08:05:18;;;;;;;;;22.50;21.50;;;;;;;;3516499;39;113699;-73
2021/04/21 08:07:53;;;;;;;;;21.00;20.00;;;;;;;;3517431;39;114604;-73
2021/04/21 08:10:24;;;;;;;;;22.00;21.75;;;;;;;;3516971;39;113338;-75
2021/04/21 08:12:51;;;;;;;;;23.50;20.25;;;;;;;;3512839;39;113819;-76
2021/04/21 08:15:18;;;;;;;;;19.50;18.75;;;;;;;;3514497;39;112346;-74
2021/04/21 08:17:52;;;;;;;;;25.75;23.75;;;;;;;;3514807;39;113259;-74
2021/04/21 08:20:30;;;;;;;;;20.00;19.25;;;;;;;;3512049;39;114126;-74
2021/04/21 08:22:57;;;;;;;;;26.50;24.00;;;;;;;;3513974;39;112366;-75
2021/04/21 08:25:23;;;;;;;;;21.75;21.25;;;;;;;;3512870;39;113731;-76
2021/04/21 08:27:49;;;;;;;;;18.00;16.75;;;;;;;;3511776;39;113867;-74
2021/04/21 08:30:16;;;;;;;;;20.25;19.50;;;;;;;;3514795;39;112496;-74
2021/04/21 08:32:42;;;;;;;;;18.75;16.25;;;;;;;;3518609;39;112801;-77
2021/04/21 08:35:10;;;;;;;;;20.50;18.75;;;;;;;;3515043;39;112240;-74
2021/04/21 08:37:36;;;;;;;;;21.75;21.75;;;;;;;;3515580;39;113617;-75
2021/04/21 08:40:03;;;;;;;;;20.50;19.25;;;;;;;;3511867;39;113626;-75
2021/04/21 08:42:30;;;;;;;;;20.50;19.50;;;;;;;;3515213;39;112389;-76
2021/04/21 08:44:57;;;;;;;;;17.00;17.00;;;;;;;;3519035;39;113660;-77
2021/04/21 08:47:24;;;;;;;;;16.50;15.75;;;;;;;;3517186;39;113905;-76
2021/04/21 08:49:54;;;;;;;;;21.25;17.75;;;;;;;;3517142;39;111823;-72
2021/04/21 08:52:22;;;;;;;;;19.50;16.75;;;;;;;;3515265;39;113282;-73
2021/04/21 08:54:51;;;;;;;;;15.00;15.00;;;;;;;;3518004;39;114531;-74
2021/04/21 08:57:17;;;;;;;;;16.50;15.50;;;;;;;;3513480;39;113522;-77
2021/04/21 08:59:43;;;;;;;;;18.75;15.50;;;;;;;;3517301;39;114136;-75
2021/04/21 09:02:11;;;;;;;;;15.50;14.00;;;;;;;;3510798;39;112468;-78
2021/04/21 09:04:37;;;;;;;;;15.75;15.25;;;;;;;;3517662;39;113292;-79
2021/04/21 09:07:03;;;;;;;;;18.75;16.25;;;;;;;;3517653;39;114255;-78
2021/04/21 09:09:32;;;;;;;;;19.00;17.00;;;;;;;;3518040;39;111894;-79
2021/04/21 09:12:00;;;;;;;;;15.75;15.75;;;;;;;;3518416;39;114818;-79
2021/04/21 09:14:26;;;;;;;;;16.00;15.00;;;;;;;;3517533;39;113846;-80
2021/04/21 09:16:52;;;;;;;;;12.25;11.25;;;;;;;;3520003;39;113019;-77
2021/04/21 09:19:18;;;;;;;;;11.50;10.00;;;;;;;;3517688;39;113844;-75
2021/04/21 09:21:44;;;;;;;;;15.00;13.00;;;;;;;;3517704;39;111935;-79
2021/04/21 09:24:12;;;;;;;;;11.00;9.50;;;;;;;;3517503;39;113202;-78
2021/04/21 09:26:39;;;;;;;;;11.00;10.00;;;;;;;;3518123;39;113866;-77
2021/04/21 09:29:05;;;;;;;;;11.00;9.25;;;;;;;;3517774;39;111980;-75
2021/04/21 09:31:33;;;;;;;;;13.00;11.25;;;;;;;;3516241;39;114348;-74
2021/04/21 09:34:13;;;;;;;;;11.25;10.75;;;;;;;;3516118;39;113439;-73
2021/04/21 09:36:40;;;;;;;;;13.75;12.00;;;;;;;;3518100;39;111888;-72
2021/04/21 09:39:13;;;;;;;;;11.00;11.00;;;;;;;;3520457;39;113699;-74
2021/04/21 09:41:40;;;;;;;;;14.25;13.75;;;;;;;;3517860;39;112176;-75
2021/04/21 09:44:17;;;;;;;;;33.25;30.50;;;;;;;;3518098;39;113244;-73
2021/04/21 09:46:44;;;;;;;;;17.00;16.00;;;;;;;;3517312;39;113885;-72
2021/04/21 09:49:29;;;;;;;;;14.75;13.00;;;;;;;;3518069;39;111895;-72
2021/04/21 09:51:57;;;;;;;;;15.25;15.25;;;;;;;;3515851;39;114729;-72
2021/04/21 09:54:30;;;;;;;;;10.50;10.50;;;;;;;;3516529;39;113878;-72
2021/04/21 09:57:06;;;;;;;;;14.00;14.00;;;;;;;;3517634;39;112116;-74
2021/04/21 09:59:32;;;;;;;;;13.00;13.00;;;;;;;;3515754;39;113097;-74
2021/04/21 10:01:58;;;;;;;;;14.25;12.75;;;;;;;;3519363;39;114014;-73
2021/04/21 10:04:26;;;;;;;;;18.00;15.75;;;;;;;;3516058;39;113480;-76
2021/04/21 10:06:53;;;;;;;;;16.75;15.00;;;;;;;;3517707;39;114035;-74
2021/04/21 10:09:23;;;;;;;;;13.00;13.00;;;;;;;;3517340;39;111851;-74
2021/04/21 10:11:49;;;;;;;;;16.75;14.00;;;;;;;;3516192;39;113140;-75
2021/04/21 10:14:22;;;;;;;;;15.50;14.00;;;;;;;;3518614;39;113855;-71
2021/04/21 10:16:49;;;;;;;;;14.75;13.25;;;;;;;;3516007;39;111856;-73
2021/04/21 10:19:15;;;;;;;;;18.00;15.00;;;;;;;;3519371;39;113603;-76
2021/04/21 10:21:41;;;;;;;;;15.75;15.00;;;;;;;;3517069;39;113745;-74
2021/04/21 10:24:08;;;;;;;;;12.25;12.25;;;;;;;;3517551;39;113437;-72
2021/04/21 10:26:34;;;;;;;;;12.25;12.25;;;;;;;;3518077;39;113995;-70
2021/04/21 10:29:00;;;;;;;;;17.50;16.00;;;;;;;;3518281;39;112809;-73
2021/04/21 10:31:27;;;;;;;;;18.00;17.00;;;;;;;;3516934;39;114203;-73
2021/04/21 10:33:53;;;;;;;;;14.75;14.25;;;;;;;;3515776;39;114555;-73
2021/04/21 10:36:20;;;;;;;;;14.50;14.00;;;;;;;;3519057;39;112280;-75
2021/04/21 10:38:46;;;;;;;;;16.75;16.75;;;;;;;;3517784;39;113567;-76
2021/04/21 10:41:22;;;;;;;;;14.75;13.75;;;;;;;;3518315;39;114228;-75
2021/04/21 10:43:49;;;;;;;;;16.50;13.75;;;;;;;;3520297;39;112100;-72
2021/04/21 10:46:15;;;;;;;;;13.25;13.25;;;;;;;;3521490;39;113921;-73
2021/04/21 10:48:43;;;;;;;;;15.00;12.75;;;;;;;;3516753;39;114368;-67
2021/04/21 10:51:27;;;;;;;;;14.50;14.00;;;;;;;;3518977;39;113264;-71
2021/04/21 10:53:59;;;;;;;;;22.00;18.50;;;;;;;;3515325;39;113368;-72
2021/04/21 10:56:25;;;;;;;;;16.75;16.25;;;;;;;;3518833;39;112053;-69
2021/04/21 10:58:52;;;;;;;;;16.00;14.50;;;;;;;;3517497;39;113321;-67
2021/04/21 11:01:28;;;;;;;;;16.25;13.75;;;;;;;;3518273;39;113842;-70
2021/04/21 11:03:55;;;;;;;;;17.75;17.75;;;;;;;;3516226;39;113241;-68
2021/04/21 11:06:35;;;;;;;;;14.00;13.00;;;;;;;;3519132;39;113772;-68
2021/04/21 11:09:02;;;;;;;;;17.50;14.00;;;;;;;;3517265;39;112900;-64
2021/04/21 11:11:34;;;;;;;;;12.50;11.50;;;;;;;;3518725;39;114083;-72
2021/04/21 11:14:00;;;;;;;;;11.50;10.25;;;;;;;;3516898;39;114058;-74
2021/04/21 11:16:36;;;;;;;;;13.00;12.00;;;;;;;;3518578;39;112006;-72
2021/04/21 11:19:21;;;;;;;;;12.00;10.00;;;;;;;;3517898;39;113290;-72
2021/04/21 11:21:49;;;;;;;;;11.25;10.00;;;;;;;;3514855;39;113755;-73
2021/04/21 11:24:17;;;;;;;;;13.00;12.50;;;;;;;;3517012;39;111906;-74
2021/04/21 11:26:44;;;;;;;;;12.00;11.50;;;;;;;;3518988;39;113337;-73
2021/04/21 11:29:12;;;;;;;;;14.75;12.50;;;;;;;;3517192;39;114441;-75
2021/04/21 11:31:57;;;;;;;;;12.00;12.00;;;;;;;;3517599;39;113185;-75
2021/04/21 11:34:26;;;;;;;;;12.75;12.75;;;;;;;;3515182;39;114717;-73
2021/04/21 11:36:54;;;;;;;;;13.50;12.25;;;;;;;;3518941;39;111849;-75
2021/04/21 11:39:39;;;;;;;;;15.00;14.25;;;;;;;;3513434;39;113904;-75
2021/04/21 11:42:19;;;;;;;;;17.50;15.75;;;;;;;;3517435;39;114052;-74
2021/04/21 11:44:58;;;;;;;;;16.50;15.00;;;;;;;;3518699;39;111864;-74
2021/04/21 11:47:28;;;;;;;;;12.50;11.00;;;;;;;;3516171;39;113833;-73
2021/04/21 11:50:08;;;;;;;;;13.25;13.25;;;;;;;;3518325;39;113722;-73
2021/04/21 11:52:58;;;;;;;;;12.50;11.50;;;;;;;;3520331;39;111834;-73
2021/04/21 11:55:26;;;;;;;;;12.75;12.75;;;;;;;;3506574;39;113882;-73
2021/04/21 11:57:57;;;;;;;;;14.50;14.25;;;;;;;;3516734;39;111744;-75
2021/04/21 12:00:24;;;;;;;;;14.50;13.75;;;;;;;;3513853;39;113288;-73
2021/04/21 12:02:50;;;;;;;;;17.50;13.75;;;;;;;;3511705;39;113858;-73
2021/04/21 12:05:22;;;;;;;;;12.00;12.00;;;;;;;;3512737;39;111835;-72
2021/04/21 12:07:49;;;;;;;;;14.00;13.00;;;;;;;;3515950;39;113314;-72
2021/04/21 12:10:16;;;;;;;;;10.25;10.25;;;;;;;;3515930;39;114241;-72
2021/04/21 12:12:43;;;;;;;;;10.25;10.25;;;;;;;;3517893;39;112126;-70
2021/04/21 12:15:10;;;;;;;;;11.25;11.25;;;;;;;;3519206;39;113826;-72
2021/04/21 12:17:48;;;;;;;;;11.75;10.00;;;;;;;;3518780;39;112023;-73
2021/04/21 12:20:19;;;;;;;;;13.00;10.00;;;;;;;;3519455;39;113896;-72
2021/04/21 12:22:45;;;;;;;;;12.25;12.00;;;;;;;;3515821;39;114670;-74
2021/04/21 12:25:12;;;;;;;;;12.25;10.75;;;;;;;;3519097;39;112075;-73
2021/04/21 12:27:38;;;;;;;;;10.00;10.00;;;;;;;;3518356;39;113624;-74
2021/04/21 12:30:12;;;;;;;;;11.75;10.75;;;;;;;;3517144;39;114142;-74
2021/04/21 12:32:38;;;;;;;;;11.75;11.00;;;;;;;;3519254;39;111757;-73
2021/04/21 12:35:06;;;;;;;;;11.25;10.75;;;;;;;;3520444;39;113424;-73
2021/04/21 12:37:33;;;;;;;;;15.25;12.00;;;;;;;;3518703;39;111739;-72
2021/04/21 12:39:59;;;;;;;;;11.00;11.00;;;;;;;;3518809;39;113551;-75
2021/04/21 12:42:25;;;;;;;;;13.00;11.00;;;;;;;;3517437;39;113989;-77
2021/04/21 12:44:51;;;;;;;;;9.00;9.00;;;;;;;;3519447;39;112138;-73
2021/04/21 12:47:18;;;;;;;;;10.00;9.00;;;;;;;;3517756;39;113507;-76
2021/04/21 12:49:46;;;;;;;;;13.75;12.50;;;;;;;;3515413;39;115693;-76
2021/04/21 12:52:13;;;;;;;;;10.75;9.50;;;;;;;;3518315;39;112438;-76
2021/04/21 12:54:41;;;;;;;;;11.25;9.00;;;;;;;;3519313;39;113479;-74
2021/04/21 12:57:08;;;;;;;;;10.00;9.75;;;;;;;;3519993;39;113960;-73
2021/04/21 12:59:41;;;;;;;;;11.00;10.25;;;;;;;;3518919;39;113155;-73
2021/04/21 13:02:07;;;;;;;;;11.00;11.00;;;;;;;;3516967;39;114553;-74
2021/04/21 13:04:41;;;;;;;;;12.25;10.25;;;;;;;;3515541;39;112226;-75
2021/04/21 13:07:14;;;;;;;;;10.75;9.00;;;;;;;;3513054;39;113598;-72
2021/04/21 13:09:40;;;;;;;;;8.00;8.00;;;;;;;;3513269;39;113783;-73
2021/04/21 13:12:07;;;;;;;;;7.50;7.50;;;;;;;;3517426;39;111931;-72
2021/04/21 13:14:37;;;;;;;;;8.00;8.00;;;;;;;;3516372;39;113289;-73
2021/04/21 13:17:03;;;;;;;;;9.25;9.00;;;;;;;;3516954;39;114017;-71
2021/04/21 13:19:31;;;;;;;;;11.00;9.50;;;;;;;;3520621;39;112135;-72
2021/04/21 13:21:59;;;;;;;;;10.50;10.50;;;;;;;;3516664;39;114476;-72
2021/04/21 13:46:07;;;;;;;;;9.00;9.00;;;;;;;;3570096;39;112222;-74
2021/04/21 13:48:34;;;;;;;;;11.75;8.00;;;;;;;;3565310;39;114440;-74
2021/04/21 13:51:00;;;;;;;;;9.00;8.00;;;;;;;;3564824;39;111778;-73
2021/04/21 13:53:26;;;;;;;;;7.00;7.00;;;;;;;;3568088;39;113392;-73
2021/04/21 13:55:52;;;;;;;;;9.25;8.75;;;;;;;;3565704;39;113999;-72
2021/04/21 13:58:20;;;;;;;;;8.50;7.75;;;;;;;;3567679;39;111793;-74
2021/04/21 14:00:46;;;;;;;;;9.00;7.25;;;;;;;;3566876;39;113057;-72
2021/04/21 14:03:13;;;;;;;;;6.00;6.00;;;;;;;;3565686;39;114727;-73
2021/04/21 14:05:39;;;;;;;;;9.00;7.00;;;;;;;;3568593;39;113175;-70
2021/04/21 14:08:06;;;;;;;;;6.25;6.25;;;;;;;;3567522;39;114701;-69
2021/04/21 14:10:32;;;;;;;;;7.25;7.25;;;;;;;;3568187;39;112450;-71
2021/04/21 14:12:58;;;;;;;;;7.50;7.25;;;;;;;;3567750;39;113512;-72
2021/04/21 14:15:25;;;;;;;;;8.00;8.00;;;;;;;;3565935;39;114436;-72
2021/04/21 14:17:51;;;;;;;;;9.00;9.00;;;;;;;;3565497;39;112354;-75
2021/04/21 14:20:18;;;;;;;;;7.00;7.00;;;;;;;;3567691;39;113303;-73
2021/04/21 14:22:46;;;;;;;;;9.25;8.00;;;;;;;;3566030;39;112938;-72
2021/04/21 14:25:14;;;;;;;;;9.00;8.00;;;;;;;;3567717;39;111903;-73
2021/04/21 14:27:41;;;;;;;;;11.50;10.75;;;;;;;;3570229;39;114135;-72
2021/04/21 14:30:08;;;;;;;;;11.00;9.50;;;;;;;;3565778;39;111806;-71
2021/04/21 14:32:34;;;;;;;;;6.25;6.25;;;;;;;;3566772;39;113277;-70
2021/04/21 14:35:00;;;;;;;;;7.25;7.25;;;;;;;;3567186;39;114043;-70
2021/04/21 14:37:27;;;;;;;;;9.00;7.75;;;;;;;;3568232;39;112483;-70
2021/04/21 14:39:53;;;;;;;;;7.75;7.75;;;;;;;;3568221;39;113205;-72
2021/04/21 14:42:19;;;;;;;;;8.50;6.75;;;;;;;;3567194;39;114093;-73
2021/04/21 14:44:45;;;;;;;;;8.50;7.00;;;;;;;;3564872;39;113223;-70
2021/04/21 14:47:11;;;;;;;;;10.50;8.25;;;;;;;;3564988;39;114391;-74
2021/04/21 14:49:38;;;;;;;;;9.00;9.00;;;;;;;;3568874;39;114295;-72
2021/04/21 14:52:04;;;;;;;;;8.25;7.00;;;;;;;;3564835;39;113743;-76
2021/04/21 14:54:31;;;;;;;;;9.00;9.00;;;;;;;;3564432;39;114281;-74
2021/04/21 14:56:57;;;;;;;;;8.50;8.50;;;;;;;;3560072;39;112234;-70
2021/04/21 14:59:23;;;;;;;;;9.50;9.00;;;;;;;;3558143;39;114250;-70
2021/04/21 15:01:49;;;;;;;;;12.00;11.25;;;;;;;;3562499;39;114130;-70
2021/04/21 15:04:15;;;;;;;;;11.00;7.25;;;;;;;;3558626;39;112980;-71
2021/04/21 15:06:45;;;;;;;;;9.75;9.75;;;;;;;;3557690;39;113568;-69
2021/04/21 15:09:11;;;;;;;;;12.00;10.00;;;;;;;;3557985;39;113957;-69
2021/04/21 15:11:38;;;;;;;;;6.25;6.25;;;;;;;;3561232;39;113012;-69
2021/04/21 15:14:04;;;;;;;;;9.75;9.75;;;;;;;;3558203;39;114087;-69
2021/04/21 15:16:31;;;;;;;;;9.25;9.25;;;;;;;;3563090;39;113877;-71
2021/04/21 15:18:57;;;;;;;;;9.75;9.75;;;;;;;;3562770;39;113306;-68
2021/04/21 15:21:23;;;;;;;;;10.25;10.25;;;;;;;;3562653;39;113793;-72
2021/04/21 15:23:49;;;;;;;;;9.50;7.00;;;;;;;;3560786;39;111941;-73
2021/04/21 15:26:15;;;;;;;;;10.00;7.50;;;;;;;;3557591;39;113265;-79
2021/04/21 15:28:42;;;;;;;;;8.00;8.00;;;;;;;;3560021;39;114405;-74
2021/04/21 15:31:09;;;;;;;;;10.00;10.00;;;;;;;;3559155;39;111855;-72
2021/04/21 15:33:35;;;;;;;;;9.50;9.50;;;;;;;;3561101;39;114160;-71
2021/04/21 15:36:01;;;;;;;;;12.00;10.50;;;;;;;;3558203;39;111934;-72
2021/04/21 15:38:27;;;;;;;;;9.25;8.50;;;;;;;;3559219;39;113503;-70
2021/04/21 15:40:53;;;;;;;;;8.00;8.00;;;;;;;;3557548;39;113826;-71
2021/04/21 15:43:19;;;;;;;;;8.25;8.25;;;;;;;;3559128;39;112081;-73
2021/04/21 15:45:46;;;;;;;;;6.50;6.50;;;;;;;;3557397;39;113940;-72
2021/04/21 15:48:13;;;;;;;;;7.00;7.00;;;;;;;;3557938;39;113786;-72
2021/04/21 15:50:39;;;;;;;;;4.00;3.50;;;;;;;;3557374;39;113345;-71
2021/04/21 15:53:06;;;;;;;;;5.00;5.00;;;;;;;;3558598;39;113341;-71
2021/04/21 15:55:32;;;;;;;;;8.00;6.75;;;;;;;;3561778;39;113860;-71
2021/04/21 15:57:58;;;;;;;;;10.00;8.75;;;;;;;;3558614;39;113146;-71
2021/04/21 16:00:25;;;;;;;;;8.00;6.25;;;;;;;;3557549;39;114649;-69
2021/04/21 16:02:52;;;;;;;;;6.75;6.50;;;;;;;;3559572;39;111909;-69
2021/04/21 16:05:20;;;;;;;;;8.25;7.00;;;;;;;;3557361;39;113263;-69
2021/04/21 16:07:46;;;;;;;;;11.25;9.25;;;;;;;;3560563;39;115557;-69
2021/04/21 16:10:14;;;;;;;;;7.75;7.75;;;;;;;;3557548;39;111989;-68
2021/04/21 16:12:40;;;;;;;;;10.00;8.25;;;;;;;;3558923;39;113274;-68
2021/04/21 16:15:06;;;;;;;;;10.00;7.00;;;;;;;;3561730;39;114604;-69
2021/04/21 16:17:33;;;;;;;;;9.25;8.50;;;;;;;;3559395;39;113354;-68
2021/04/21 16:20:00;;;;;;;;;8.25;8.25;;;;;;;;3558453;39;113811;-74
2021/04/21 16:22:26;;;;;;;;;11.50;9.50;;;;;;;;3560607;39;113099;-71
2021/04/21 16:24:52;;;;;;;;;7.00;7.00;;;;;;;;3559024;39;113245;-70
2021/04/21 16:27:18;;;;;;;;;3.00;2.25;;;;;;;;3559806;39;114715;-70
2021/04/21 16:29:44;;;;;;;;;6.75;6.00;;;;;;;;3562561;39;112245;-70
2021/04/21 16:32:11;;;;;;;;;7.50;7.50;;;;;;;;3562401;39;113842;-71
2021/04/21 16:34:37;;;;;;;;;11.00;10.25;;;;;;;;3562008;39;113576;-70
2021/04/21 16:37:04;;;;;;;;;10.25;10.00;;;;;;;;3565198;39;113461;-70
2021/04/21 16:39:30;;;;;;;;;7.00;7.00;;;;;;;;3560669;39;113910;-71
2021/04/21 16:41:57;;;;;;;;;7.50;7.50;;;;;;;;3559105;39;111978;-71
2021/04/21 16:44:23;;;;;;;;;7.25;7.00;;;;;;;;3557341;39;113079;-73
2021/04/21 16:46:49;;;;;;;;;6.50;6.50;;;;;;;;3558878;39;113677;-72
2021/04/21 16:49:15;;;;;;;;;10.25;8.00;;;;;;;;3553941;39;112088;-71
2021/04/21 16:51:42;;;;;;;;;9.50;9.00;;;;;;;;3558871;39;113328;-72
2021/04/21 16:54:10;;;;;;;;;9.50;9.50;;;;;;;;3557274;39;114514;-69
2021/04/21 16:56:37;;;;;;;;;7.75;7.75;;;;;;;;3558901;39;111921;-73
2021/04/21 16:59:03;;;;;;;;;13.00;11.00;;;;;;;;3561722;39;113259;-73
2021/04/21 17:01:29;;;;;;;;;1.25;0.00;;;;;;;;3559150;39;112306;-73
2021/04/21 17:03:56;;;;;;;;;13.75;10.75;;;;;;;;3558717;39;113423;-70
2021/04/21 17:06:22;;;;;;;;;12.00;12.00;;;;;;;;3558939;39;114256;-72
2021/04/21 17:08:48;;;;;;;;;12.25;10.00;;;;;;;;3557353;39;111898;-70
2021/04/21 17:11:15;;;;;;;;;8.25;8.25;;;;;;;;3558561;39;113241;-72
2021/04/21 17:13:43;;;;;;;;;7.25;7.25;;;;;;;;3557166;39;113323;-72
2021/04/21 17:16:12;;;;;;;;;8.50;8.25;;;;;;;;3558087;39;111941;-72
2021/04/21 17:18:38;;;;;;;;;9.00;9.00;;;;;;;;3557542;39;113504;-71
2021/04/21 17:21:04;;;;;;;;;10.25;6.75;;;;;;;;3562771;39;114114;-72
2021/04/21 17:23:30;;;;;;;;;7.50;6.50;;;;;;;;3562039;39;113811;-74
2021/04/21 17:25:56;;;;;;;;;11.00;7.75;;;;;;;;3561711;39;113766;-73
2021/04/21 17:28:23;;;;;;;;;7.25;6.00;;;;;;;;3561907;39;112716;-75
2021/04/21 17:30:50;;;;;;;;;8.00;8.00;;;;;;;;3559278;39;113990;-79
2021/04/21 17:33:16;;;;;;;;;10.00;10.00;;;;;;;;3558132;39;113829;-76
2021/04/21 17:35:42;;;;;;;;;9.75;7.25;;;;;;;;3559475;39;112105;-70
2021/04/21 17:38:08;;;;;;;;;7.00;7.00;;;;;;;;3558078;39;113620;-69
2021/04/21 17:40:34;;;;;;;;;8.25;7.00;;;;;;;;3557389;39;114127;-69
2021/04/21 17:43:13;;;;;;;;;10.00;8.00;;;;;;;;3562647;39;112096;-71
2021/04/21 17:45:41;;;;;;;;;7.50;7.25;;;;;;;;3559220;39;113954;-69
2021/04/21 17:48:11;;;;;;;;;6.25;6.25;;;;;;;;3560349;39;112732;-73
2021/04/21 17:50:38;;;;;;;;;9.00;7.00;;;;;;;;3561197;39;112938;-72
2021/04/21 17:53:04;;;;;;;;;7.00;7.00;;;;;;;;3559704;39;114186;-67
2021/04/21 17:55:30;;;;;;;;;8.50;8.50;;;;;;;;3559504;39;111893;-67
2021/04/21 17:57:56;;;;;;;;;8.75;8.75;;;;;;;;3558606;39;113835;-67
2021/04/21 18:00:24;;;;;;;;;9.00;6.75;;;;;;;;3559103;39;113923;-69
2021/04/21 18:02:51;;;;;;;;;9.50;7.75;;;;;;;;3560462;39;111890;-69
2021/04/21 18:05:17;;;;;;;;;7.75;7.75;;;;;;;;3557212;39;114599;-68
2021/04/21 18:07:43;;;;;;;;;27.25;23.75;;;;;;;;3556453;39;112746;-68
2021/04/21 18:10:10;;;;;;;;;123.25;107.75;;;;;;;;3553004;39;111985;-69
2021/04/21 18:12:37;;;;;;;;;51.33;44.33;;;;;;;;3557218;39;114791;-70
2021/04/21 18:15:04;;;;;;;;;38.00;33.50;;;;;;;;3557895;39;112003;-71
2021/04/21 18:17:31;;;;;;;;;31.75;28.25;;;;;;;;3557725;39;114313;-69
2021/04/21 18:19:58;;;;;;;;;14.00;13.00;;;;;;;;3557728;39;114795;-71
2021/04/21 18:22:24;;;;;;;;;10.50;10.50;;;;;;;;3556762;39;113162;-70
2021/04/21 18:24:50;;;;;;;;;9.25;7.75;;;;;;;;3560843;39;113402;-72
2021/04/21 18:27:16;;;;;;;;;12.25;10.25;;;;;;;;3560510;39;112611;-72